Terminal Aerodrome Forecast
Issued by NWS

Home | Current Version | Previous Version | Text Only | Print | Product List | Glossary On
Versions: 1 2 3 4 5 6 7 8 9 10 11 12 13 14 15 16 17 18 19 20 21 22
000
FTUS46 KSEW 010536
TAFBFI
TAF
KBFI 010536Z 0106/0206 18008KT P6SM -SHRA SCT035 BKN060
     FM011500 20008KT P6SM -RA BKN025 OVC045
     FM011900 20006KT P6SM -SHRA SCT035 BKN050=

USA.gov is the U.S. government's official web portal to all federal, state and local government web resources and services.